Time;durP1;ratioP1;P1;durP2;ratioP2;P2;SDS_P1;SDS_P2;PMS_P1;PMS_P2;Temp;Humidity;BMP_temperature;BMP_pressure;BME280_temperature;BME280_humidity;BME280_pressure;Samples;Min_cycle;Max_cycle;Signal;HPM_P1;HPM_P2
2021/07/21 00:01:07;;;;;;;18.45;10.30;;;;;;;16.53;74.44;102371.13;5071952;28;20020;-63
2021/07/21 00:03:33;;;;;;;20.00;10.30;;;;;;;16.52;74.41;102381.84;5071882;28;20044;-64
2021/07/21 00:05:58;;;;;;;18.55;9.63;;;;;;;16.51;74.58;102372.13;5069950;28;20033;-64
2021/07/21 00:08:23;;;;;;;17.38;9.52;;;;;;;16.52;74.63;102380.06;5070266;28;20050;-64
2021/07/21 00:10:50;;;;;;;18.58;9.80;;;;;;;16.51;74.69;102382.81;5072296;28;20068;-64
2021/07/21 00:13:31;;;;;;;16.77;9.10;;;;;;;16.46;74.89;102377.66;5073012;28;20075;-64
2021/07/21 00:16:06;;;;;;;18.20;9.77;;;;;;;16.44;74.96;102379.53;5070853;28;20028;-64
2021/07/21 00:18:49;;;;;;;18.20;10.00;;;;;;;16.41;74.94;102378.78;5071071;28;20103;-64
2021/07/21 00:21:17;;;;;;;17.55;9.48;;;;;;;16.38;75.15;102375.34;5072773;28;20055;-65
2021/07/21 00:23:42;;;;;;;18.45;9.70;;;;;;;16.39;75.15;102381.53;5072705;28;20028;-65
2021/07/21 00:26:07;;;;;;;18.10;8.70;;;;;;;16.41;74.56;102378.78;5069543;28;20028;-62
2021/07/21 00:28:34;;;;;;;18.38;9.50;;;;;;;16.38;74.53;102372.66;5073293;28;20419;-63
2021/07/21 00:31:01;;;;;;;16.45;9.25;;;;;;;16.42;74.91;102376.06;5072651;28;20048;-65
2021/07/21 00:33:26;;;;;;;17.42;9.02;;;;;;;16.41;74.92;102373.44;5054416;28;20074;-63
2021/07/21 00:35:51;;;;;;;18.05;9.27;;;;;;;16.36;75.28;102369.19;5072587;28;20392;-63
2021/07/21 00:38:17;;;;;;;16.90;9.93;;;;;;;16.33;75.71;102373.78;5072083;28;20039;-64
2021/07/21 00:40:42;;;;;;;17.67;9.48;;;;;;;16.29;75.61;102369.53;5070547;28;20063;-65
2021/07/21 00:43:08;;;;;;;18.25;9.30;;;;;;;16.27;76.07;102374.94;5072409;28;20472;-65
2021/07/21 00:45:34;;;;;;;17.88;9.48;;;;;;;16.24;76.16;102380.44;5072328;28;20040;-64
2021/07/21 00:47:59;;;;;;;18.75;9.75;;;;;;;16.26;76.07;102373.19;5059011;28;20480;-64
2021/07/21 00:50:24;;;;;;;17.92;9.60;;;;;;;16.22;75.99;102369.78;5053410;28;20063;-64
2021/07/21 00:52:51;;;;;;;16.38;9.40;;;;;;;16.24;76.01;102366.19;5052538;28;20033;-63
2021/07/21 00:55:17;;;;;;;17.75;9.60;;;;;;;16.15;76.51;102364.78;5055026;28;20024;-64
2021/07/21 00:57:43;;;;;;;19.08;10.32;;;;;;;16.12;77.26;102375.63;5057600;28;20082;-64
2021/07/21 01:00:17;;;;;;;18.05;9.27;;;;;;;16.10;76.77;102378.38;5056374;28;20099;-63
2021/07/21 01:02:45;;;;;;;18.23;9.13;;;;;;;16.07;76.90;102372.28;5057268;28;20087;-62
2021/07/21 01:05:18;;;;;;;19.17;9.27;;;;;;;16.03;77.11;102369.72;5056537;28;20052;-63
2021/07/21 01:07:45;;;;;;;18.55;9.38;;;;;;;16.05;76.92;102369.69;5057562;28;20373;-62
2021/07/21 01:10:11;;;;;;;19.50;9.48;;;;;;;16.01;76.77;102362.72;5056615;28;20086;-63
2021/07/21 01:13:06;;;;;;;17.63;8.32;;;;;;;16.00;76.63;102364.53;5057265;28;20033;-63
2021/07/21 01:16:04;;;;;;;17.80;9.13;;;;;;;16.00;76.60;102366.34;4994731;28;20038;-64
2021/07/21 01:18:38;;;;;;;21.50;9.82;;;;;;;15.96;76.99;102362.03;4995467;28;20040;-63
2021/07/21 01:21:13;;;;;;;20.20;10.23;;;;;;;15.90;77.38;102368.53;4993953;28;20537;-63
2021/07/21 01:23:47;;;;;;;16.67;9.05;;;;;;;15.90;77.49;102371.22;4995489;28;20423;-61
2021/07/21 01:26:16;;;;;;;22.65;10.02;;;;;;;15.87;77.22;102374.88;4994494;28;20042;-62
2021/07/21 01:28:44;;;;;;;15.90;8.90;;;;;;;15.87;76.91;102369.53;4995508;28;20036;-62
2021/07/21 01:31:15;;;;;;;19.15;9.57;;;;;;;15.86;77.54;102365.13;4994367;28;20088;-62
2021/07/21 01:33:43;;;;;;;17.83;9.48;;;;;;;15.86;77.25;102369.63;4995006;28;20039;-62
2021/07/21 01:36:13;;;;;;;19.17;9.93;;;;;;;15.82;77.96;102370.66;4994302;28;20113;-62
2021/07/21 01:38:42;;;;;;;18.75;9.85;;;;;;;15.80;77.68;102359.16;4994372;28;20031;-62
2021/07/21 01:41:15;;;;;;;21.05;10.70;;;;;;;15.75;77.78;102364.69;4995406;28;20137;-62
2021/07/21 01:43:44;;;;;;;20.58;10.63;;;;;;;15.70;78.32;102359.56;4995159;28;20046;-62
2021/07/21 01:46:11;;;;;;;20.45;10.23;;;;;;;15.68;78.54;102358.72;4994098;28;20034;-62
2021/07/21 01:48:40;;;;;;;19.92;10.45;;;;;;;15.65;78.54;102366.00;4994767;28;20061;-62
2021/07/21 01:51:07;;;;;;;20.95;10.82;;;;;;;15.60;79.20;102358.19;4995007;28;20057;-62
2021/07/21 01:53:37;;;;;;;20.25;10.20;;;;;;;15.56;79.07;102369.91;5050825;28;20047;-62
2021/07/21 01:56:04;;;;;;;19.65;10.40;;;;;;;15.53;79.72;102368.25;5056552;28;20090;-62
2021/07/21 01:58:31;;;;;;;21.17;10.18;;;;;;;15.50;79.97;102360.38;5055355;28;20025;-62
2021/07/21 02:00:57;;;;;;;22.75;11.18;;;;;;;15.47;79.84;102372.97;5056270;28;20029;-62
2021/07/21 02:03:23;;;;;;;22.88;10.65;;;;;;;15.48;79.95;102372.91;5055383;28;20032;-62
2021/07/21 02:05:53;;;;;;;19.35;10.10;;;;;;;15.49;79.68;102371.97;5056089;28;20036;-62
2021/07/21 02:08:21;;;;;;;19.67;10.48;;;;;;;15.48;79.64;102377.38;5055282;28;20061;-62
2021/07/21 02:10:47;;;;;;;22.08;11.07;;;;;;;15.45;79.92;102372.16;5063319;28;20028;-62
2021/07/21 02:13:16;;;;;;;20.98;10.95;;;;;;;15.47;79.88;102381.84;5075335;28;20028;-62
2021/07/21 02:15:44;;;;;;;21.52;10.68;;;;;;;15.45;79.99;102383.72;5070126;28;20040;-62
2021/07/21 02:18:10;;;;;;;24.15;11.07;;;;;;;15.38;80.40;102380.44;5054977;28;20366;-62
2021/07/21 02:20:36;;;;;;;25.33;11.40;;;;;;;15.37;80.50;102377.81;5055722;28;20032;-61
2021/07/21 02:23:02;;;;;;;23.27;11.18;;;;;;;15.34;80.24;102376.13;5054711;28;20570;-62
2021/07/21 02:25:28;;;;;;;22.20;10.95;;;;;;;15.33;80.45;102374.44;5054876;28;20496;-61
2021/07/21 02:27:55;;;;;;;21.77;10.95;;;;;;;15.35;80.31;102377.88;5055894;28;20031;-62
2021/07/21 02:30:20;;;;;;;21.70;11.32;;;;;;;15.34;80.65;102373.47;5054691;28;20025;-62
2021/07/21 02:33:10;;;;;;;22.25;11.50;;;;;;;15.38;80.73;102371.53;5055685;28;20043;-62
2021/07/21 02:35:36;;;;;;;20.65;10.38;;;;;;;15.39;80.35;102375.97;5074181;28;20032;-62
2021/07/21 02:38:03;;;;;;;20.35;10.43;;;;;;;15.38;80.22;102371.53;5054234;28;20396;-62
2021/07/21 02:40:29;;;;;;;25.33;11.93;;;;;;;15.32;80.67;102374.47;5074604;28;20100;-61
2021/07/21 02:42:55;;;;;;;26.73;12.65;;;;;;;15.28;80.80;102375.53;5072720;28;20384;-62
2021/07/21 02:45:20;;;;;;;21.52;10.98;;;;;;;15.28;81.01;102375.53;5074423;28;20034;-62
2021/07/21 02:47:46;;;;;;;25.67;11.88;;;;;;;15.22;81.15;102380.16;5072955;28;20029;-62
2021/07/21 02:50:15;;;;;;;22.55;11.35;;;;;;;15.22;81.14;102382.00;5074487;28;20028;-63
2021/07/21 02:53:03;;;;;;;24.15;11.57;;;;;;;15.16;81.31;102384.91;5072642;28;20028;-62
2021/07/21 02:55:43;;;;;;;23.42;11.80;;;;;;;15.08;81.63;102377.19;5073980;28;20060;-62
2021/07/21 02:58:20;;;;;;;24.98;11.68;;;;;;;15.05;81.79;102388.84;5072666;28;20043;-62
2021/07/21 03:00:46;;;;;;;27.08;12.13;;;;;;;15.05;81.92;102387.97;5074421;28;20035;-62
2021/07/21 03:03:16;;;;;;;22.50;11.65;;;;;;;15.05;81.68;102388.84;5072435;28;20158;-62
2021/07/21 03:05:44;;;;;;;21.80;11.52;;;;;;;15.05;81.68;102385.28;5073522;28;20489;-62
2021/07/21 03:08:11;;;;;;;26.58;12.18;;;;;;;15.03;81.57;102390.69;5073901;28;20017;-62
2021/07/21 03:10:40;;;;;;;24.48;11.35;;;;;;;15.01;81.33;102384.56;5072479;28;20082;-62
2021/07/21 03:13:11;;;;;;;21.73;11.02;;;;;;;15.02;80.90;102391.63;5072419;28;20067;-62
2021/07/21 03:15:40;;;;;;;24.90;12.00;;;;;;;15.03;80.87;102390.69;5074034;28;20021;-62
2021/07/21 03:18:09;;;;;;;24.02;10.63;;;;;;;15.00;80.87;102392.59;5055660;28;20024;-62
2021/07/21 03:20:35;;;;;;;20.15;11.15;;;;;;;14.97;81.08;102395.41;5072171;28;20457;-62
2021/07/21 03:23:02;;;;;;;21.48;10.77;;;;;;;14.96;81.00;102394.56;5072459;28;20048;-62
2021/07/21 03:25:29;;;;;;;21.55;10.88;;;;;;;14.95;80.90;102400.81;5073221;28;20024;-62
2021/07/21 03:27:55;;;;;;;22.85;11.77;;;;;;;14.93;81.02;102397.31;5073619;28;20017;-62
2021/07/21 03:30:23;;;;;;;19.63;10.43;;;;;;;14.90;81.24;102400.97;5067252;28;20096;-62
2021/07/21 03:32:49;;;;;;;24.23;11.70;;;;;;;14.84;81.31;102395.88;5053854;28;20028;-62
2021/07/21 03:35:16;;;;;;;20.83;11.32;;;;;;;14.81;81.60;102392.44;5054530;28;20044;-62
2021/07/21 03:37:45;;;;;;;22.75;12.02;;;;;;;14.81;81.49;102395.09;5053044;28;20033;-62
2021/07/21 03:40:11;;;;;;;24.90;12.23;;;;;;;14.83;81.71;102394.13;5053327;28;20100;-62
2021/07/21 03:42:37;;;;;;;27.17;12.25;;;;;;;14.85;81.70;102394.94;5054294;28;20111;-62
2021/07/21 03:45:11;;;;;;;24.67;11.85;;;;;;;14.82;81.77;102391.53;5054366;28;20039;-62
2021/07/21 03:47:39;;;;;;;22.25;11.15;;;;;;;14.83;81.96;102391.47;5053615;28;20025;-62
2021/07/21 03:50:05;;;;;;;24.25;11.77;;;;;;;14.82;82.13;102399.53;5053146;28;20051;-62
2021/07/21 03:52:32;;;;;;;22.75;12.07;;;;;;;14.82;82.07;102389.75;5064964;28;20478;-62
2021/07/21 03:54:58;;;;;;;25.05;11.88;;;;;;;14.81;82.40;102388.00;5071267;28;20024;-62
2021/07/21 03:57:25;;;;;;;24.17;10.93;;;;;;;14.84;82.13;102395.00;5072971;28;20032;-62
2021/07/21 03:59:50;;;;;;;20.70;10.82;;;;;;;14.87;82.09;102382.44;5073051;28;20055;-62
2021/07/21 04:02:17;;;;;;;20.38;10.93;;;;;;;14.90;81.64;102389.44;5071086;28;20380;-63
2021/07/21 04:04:46;;;;;;;26.40;12.82;;;;;;;14.87;81.81;102387.78;5071937;28;20036;-62
2021/07/21 04:07:13;;;;;;;25.98;12.65;;;;;;;14.87;82.19;102394.88;5072436;28;20027;-62
2021/07/21 04:09:40;;;;;;;25.27;12.88;;;;;;;14.85;82.41;102386.09;5072686;28;20027;-62
2021/07/21 04:12:06;;;;;;;23.23;11.18;;;;;;;14.90;82.37;102386.78;5073024;28;20025;-62
2021/07/21 04:14:33;;;;;;;23.27;11.68;;;;;;;14.90;82.21;102386.78;5071422;28;20031;-62
2021/07/21 04:17:00;;;;;;;26.38;12.82;;;;;;;14.86;82.65;102390.47;5071135;28;20029;-62
2021/07/21 04:19:27;;;;;;;24.77;12.43;;;;;;;14.90;82.46;102387.63;5072835;28;20024;-62
2021/07/21 04:21:54;;;;;;;26.67;12.80;;;;;;;14.91;82.62;102393.81;5072562;28;20052;-62
2021/07/21 04:24:21;;;;;;;25.73;12.32;;;;;;;14.96;82.50;102391.88;5061019;28;20491;-62
2021/07/21 04:26:48;;;;;;;23.33;11.18;;;;;;;15.03;82.03;102390.69;5053625;28;20029;-62
2021/07/21 04:29:15;;;;;;;22.33;12.25;;;;;;;15.06;81.82;102400.38;5052023;28;20048;-62
2021/07/21 04:31:44;;;;;;;24.38;12.23;;;;;;;15.06;82.08;102398.59;5052708;28;20029;-63
2021/07/21 04:34:10;;;;;;;24.17;12.07;;;;;;;15.05;82.32;102394.19;5054165;28;20036;-62
2021/07/21 04:36:38;;;;;;;24.77;11.82;;;;;;;15.05;82.29;102399.53;5061876;28;20029;-62
2021/07/21 04:39:04;;;;;;;26.95;12.13;;;;;;;15.10;82.22;102399.31;5054739;28;20439;-63
2021/07/21 04:41:31;;;;;;;26.77;11.98;;;;;;;15.11;82.32;102406.41;5052489;28;20477;-62
2021/07/21 04:43:56;;;;;;;25.25;12.70;;;;;;;15.14;82.15;102402.75;5052339;28;20036;-62
2021/07/21 04:46:22;;;;;;;24.40;12.50;;;;;;;15.22;81.83;102400.66;5053288;28;20025;-62
2021/07/21 04:48:48;;;;;;;27.33;13.38;;;;;;;15.27;81.74;102411.13;5053252;28;20029;-63
2021/07/21 04:51:17;;;;;;;24.67;12.63;;;;;;;15.34;81.48;102410.84;5052110;28;20041;-62
2021/07/21 04:53:42;;;;;;;24.42;13.07;;;;;;;15.41;81.05;102403.47;5052096;28;20139;-63
2021/07/21 04:56:08;;;;;;;23.70;12.95;;;;;;;15.45;80.92;102417.53;5053485;28;20025;-62
2021/07/21 04:58:33;;;;;;;24.20;12.70;;;;;;;15.45;81.03;102407.75;5053223;28;20025;-62
2021/07/21 05:00:59;;;;;;;23.88;11.88;;;;;;;15.49;80.81;102425.38;5052236;28;20385;-62
2021/07/21 05:03:24;;;;;;;22.30;12.15;;;;;;;15.57;80.79;102422.41;5052256;28;20033;-63
2021/07/21 05:05:49;;;;;;;22.73;11.73;;;;;;;15.64;80.88;102423.00;5053054;28;20024;-63
2021/07/21 05:08:15;;;;;;;25.83;13.25;;;;;;;15.70;80.63;102428.09;5053289;28;20033;-62
2021/07/21 05:10:46;;;;;;;24.83;13.52;;;;;;;15.74;80.87;102432.38;5051648;28;20025;-63
2021/07/21 05:13:11;;;;;;;28.08;13.10;;;;;;;15.82;80.21;102429.41;5052118;28;20052;-63
2021/07/21 05:15:37;;;;;;;27.48;13.25;;;;;;;15.92;80.07;102436.16;5052010;28;20492;-62
2021/07/21 05:18:02;;;;;;;25.63;12.80;;;;;;;15.96;79.77;102437.75;5054279;28;20090;-62
2021/07/21 05:20:27;;;;;;;22.00;12.02;;;;;;;16.08;79.95;102436.34;5071728;28;20052;-63
2021/07/21 05:22:53;;;;;;;25.40;12.45;;;;;;;16.16;79.17;102436.91;5071628;28;20135;-62
2021/07/21 05:25:19;;;;;;;27.65;14.13;;;;;;;16.28;78.60;102442.63;5071539;28;20029;-63
2021/07/21 05:27:45;;;;;;;24.70;13.05;;;;;;;16.39;78.00;102440.34;5064339;28;20013;-62
2021/07/21 05:30:12;;;;;;;27.05;12.88;;;;;;;16.47;78.55;102440.03;5059815;28;20082;-61
2021/07/21 05:32:38;;;;;;;25.42;14.00;;;;;;;16.55;77.73;102438.75;5061980;28;20029;-61
2021/07/21 05:35:05;;;;;;;24.85;13.05;;;;;;;16.66;77.41;102440.97;5066842;28;20100;-61
2021/07/21 05:37:31;;;;;;;28.33;13.52;;;;;;;16.81;76.55;102446.53;5054912;28;20048;-61
2021/07/21 05:39:56;;;;;;;27.55;13.60;;;;;;;16.92;75.50;102446.97;5061113;28;20449;-61
2021/07/21 05:42:22;;;;;;;27.17;13.75;;;;;;;16.95;75.87;102446.81;5055756;28;20035;-62
2021/07/21 05:44:47;;;;;;;25.17;13.75;;;;;;;16.91;76.41;102453.25;5065398;28;20461;-61
2021/07/21 05:47:13;;;;;;;28.23;14.43;;;;;;;17.01;75.37;102445.66;5062007;28;20128;-61
2021/07/21 05:49:38;;;;;;;26.25;14.27;;;;;;;17.13;74.82;102455.78;5071362;28;20021;-61
2021/07/21 05:52:04;;;;;;;27.15;14.52;;;;;;;17.21;74.46;102444.72;5055322;28;20108;-61
2021/07/21 05:54:29;;;;;;;27.75;15.10;;;;;;;17.33;73.15;102459.34;5055344;28;20029;-65
2021/07/21 05:56:55;;;;;;;28.42;14.75;;;;;;;17.42;73.70;102450.88;5062476;28;20036;-62
2021/07/21 05:59:20;;;;;;;26.13;14.57;;;;;;;17.43;74.52;102451.72;5060089;28;20030;-63
2021/07/21 06:01:45;;;;;;;26.23;13.95;;;;;;;17.52;72.95;102451.28;5055705;28;20028;-63
2021/07/21 06:04:11;;;;;;;24.77;14.23;;;;;;;17.60;71.26;102457.13;5055259;28;20082;-63
2021/07/21 06:06:36;;;;;;;24.67;14.38;;;;;;;17.65;71.81;102448.88;5055224;28;20108;-63
2021/07/21 06:09:05;;;;;;;30.73;15.23;;;;;;;17.67;70.70;102455.91;5054739;28;20039;-63
2021/07/21 06:11:31;;;;;;;29.73;16.55;;;;;;;17.75;71.27;102458.19;5055969;28;20489;-61
2021/07/21 06:13:59;;;;;;;26.48;14.85;;;;;;;17.81;71.82;102463.25;5057975;28;20111;-61
2021/07/21 06:16:25;;;;;;;28.17;15.02;;;;;;;17.80;72.41;102466.88;5074779;28;20025;-63
2021/07/21 06:18:51;;;;;;;26.60;15.48;;;;;;;17.85;71.44;102469.31;5074998;28;20044;-62
2021/07/21 06:21:16;;;;;;;27.92;15.27;;;;;;;17.89;71.16;102470.91;5065135;28;20032;-61
2021/07/21 06:23:41;;;;;;;26.85;14.45;;;;;;;18.02;70.67;102471.19;5063457;28;20043;-61
2021/07/21 06:26:07;;;;;;;27.17;14.85;;;;;;;18.09;70.99;102471.75;5054667;28;20495;-62
2021/07/21 06:28:34;;;;;;;28.95;14.95;;;;;;;18.21;69.87;102467.56;5071934;28;20082;-62
2021/07/21 06:30:59;;;;;;;27.02;15.30;;;;;;;18.33;69.96;102470.47;5074288;28;20047;-61
2021/07/21 06:33:25;;;;;;;27.02;15.57;;;;;;;18.43;69.78;102478.94;5075091;28;20521;-61
2021/07/21 06:35:50;;;;;;;27.48;14.77;;;;;;;18.50;69.65;102488.41;5074057;28;20082;-63
2021/07/21 06:38:15;;;;;;;24.95;14.52;;;;;;;18.58;68.88;102492.47;5074365;28;20028;-61
2021/07/21 06:40:41;;;;;;;24.45;14.45;;;;;;;18.71;68.34;102490.91;5074243;28;20027;-63
2021/07/21 06:43:06;;;;;;;28.63;14.00;;;;;;;18.80;66.53;102485.03;5074398;28;20539;-61
2021/07/21 06:45:32;;;;;;;24.98;14.45;;;;;;;18.87;64.04;102492.75;5074289;28;20031;-62
2021/07/21 06:47:57;;;;;;;27.88;13.82;;;;;;;18.92;63.55;102499.63;5074211;28;20499;-61
2021/07/21 06:50:23;;;;;;;22.25;13.20;;;;;;;19.02;62.88;102505.38;5070202;28;20028;-61
2021/07/21 06:52:49;;;;;;;24.75;13.98;;;;;;;19.07;63.39;102503.31;5064490;28;20088;-61
2021/07/21 06:55:15;;;;;;;21.65;13.98;;;;;;;19.16;62.54;102504.63;5070456;28;20116;-63
2021/07/21 06:57:41;;;;;;;20.23;12.43;;;;;;;19.29;62.76;102494.06;5053389;28;20082;-62
2021/07/21 07:00:08;;;;;;;20.70;10.90;;;;;;;19.30;59.13;102506.56;5063219;28;20051;-61
2021/07/21 07:02:33;;;;;;;25.50;11.63;;;;;;;19.39;59.12;102500.66;5053714;28;20025;-61
2021/07/21 07:04:59;;;;;;;19.35;11.35;;;;;;;19.52;60.10;102500.00;5070469;28;20029;-62
2021/07/21 07:07:24;;;;;;;22.33;12.13;;;;;;;19.58;60.60;102500.50;5064839;28;20033;-61
2021/07/21 07:09:50;;;;;;;21.05;11.50;;;;;;;19.65;59.41;102504.59;5055731;28;20529;-62
2021/07/21 07:12:16;;;;;;;16.55;10.95;;;;;;;19.73;57.67;102508.63;5073182;28;20025;-63
2021/07/21 07:14:41;;;;;;;20.20;12.15;;;;;;;19.77;60.39;102507.50;5073326;28;20124;-62
2021/07/21 07:17:07;;;;;;;19.60;11.18;;;;;;;19.81;57.92;102514.44;5073440;28;20067;-62
2021/07/21 07:19:33;;;;;;;20.30;11.40;;;;;;;19.78;57.38;102499.38;5069448;28;20024;-63
2021/07/21 07:21:59;;;;;;;21.85;10.65;;;;;;;19.82;58.24;102508.13;5068562;28;20045;-62
2021/07/21 07:24:28;;;;;;;18.77;11.27;;;;;;;19.85;57.44;102516.03;5065434;28;20028;-63
2021/07/21 07:26:58;;;;;;;19.30;10.82;;;;;;;19.97;57.77;102515.34;5073375;28;20480;-62
2021/07/21 07:29:24;;;;;;;21.35;10.77;;;;;;;20.08;56.99;102517.38;5073071;28;20056;-63
2021/07/21 07:31:50;;;;;;;18.73;10.38;;;;;;;20.09;56.68;102511.06;5070040;28;20488;-62
2021/07/21 07:34:15;;;;;;;22.63;10.45;;;;;;;20.16;56.93;102518.75;5073194;28;20033;-63
2021/07/21 07:36:40;;;;;;;18.48;10.27;;;;;;;20.29;56.53;102519.75;5072961;28;20112;-62
2021/07/21 07:39:09;;;;;;;18.08;9.82;;;;;;;20.40;55.17;102519.97;5072530;28;20017;-61
2021/07/21 07:41:36;;;;;;;21.17;10.20;;;;;;;20.44;56.15;102507.22;5071286;28;20484;-61
2021/07/21 07:44:02;;;;;;;17.83;10.68;;;;;;;20.54;55.78;102521.84;5066061;28;20028;-62
2021/07/21 07:46:27;;;;;;;17.55;10.50;;;;;;;20.65;55.63;102523.00;5054945;28;20454;-61
2021/07/21 07:48:54;;;;;;;19.77;9.75;;;;;;;20.75;54.70;102517.00;5066863;28;20028;-61
2021/07/21 07:51:21;;;;;;;21.77;9.60;;;;;;;20.88;55.23;102514.44;5067465;28;20029;-63
2021/07/21 07:53:46;;;;;;;21.50;10.50;;;;;;;20.98;55.63;102520.09;5070573;28;20028;-63
2021/07/21 07:56:12;;;;;;;14.48;9.50;;;;;;;21.06;53.83;102520.50;5072549;28;20515;-62
2021/07/21 07:58:38;;;;;;;16.17;9.00;;;;;;;21.15;53.58;102515.47;5072787;28;20074;-62
2021/07/21 08:01:03;;;;;;;16.15;8.70;;;;;;;21.23;52.87;102516.72;5072588;28;20035;-59
2021/07/21 08:03:29;;;;;;;16.95;9.20;;;;;;;21.09;53.45;102519.44;5066906;28;20021;-61
2021/07/21 08:05:56;;;;;;;19.27;9.32;;;;;;;21.06;52.45;102515.09;5052861;28;20048;-62
2021/07/21 08:08:22;;;;;;;15.52;8.80;;;;;;;21.06;52.52;102515.09;5053304;28;20029;-62
2021/07/21 08:10:48;;;;;;;16.80;9.43;;;;;;;21.13;52.19;102512.88;5062518;28;20428;-63
2021/07/21 08:13:14;;;;;;;15.05;9.55;;;;;;;21.23;51.53;102519.41;5072879;28;20033;-63
2021/07/21 08:15:39;;;;;;;13.80;8.10;;;;;;;21.39;52.61;102518.44;5070406;28;20023;-62
2021/07/21 08:18:04;;;;;;;18.77;9.32;;;;;;;21.52;52.95;102514.00;5072133;28;20047;-62
2021/07/21 08:20:30;;;;;;;16.08;9.13;;;;;;;21.64;53.19;102515.06;5072001;28;20024;-62
2021/07/21 08:22:55;;;;;;;18.35;9.55;;;;;;;21.66;51.67;102523.88;5071865;28;20041;-63
2021/07/21 08:25:23;;;;;;;15.77;9.70;;;;;;;21.68;51.67;102513.88;5068551;28;20038;-62
2021/07/21 08:27:48;;;;;;;17.73;9.40;;;;;;;21.79;51.90;102515.88;5071154;28;20036;-63
2021/07/21 08:30:14;;;;;;;21.65;9.52;;;;;;;21.81;50.82;102507.69;5069672;28;20031;-63
2021/07/21 08:32:48;;;;;;;20.83;9.27;;;;;;;21.85;50.67;102520.00;5071951;28;20111;-62
2021/07/21 08:35:15;;;;;;;19.42;9.27;;;;;;;21.95;51.21;102529.19;5064543;28;20035;-63
2021/07/21 08:37:41;;;;;;;15.13;9.02;;;;;;;22.15;51.15;102517.09;5053186;28;20024;-63
2021/07/21 08:40:08;;;;;;;16.17;9.15;;;;;;;22.27;49.97;102524.31;5059547;28;20416;-62
2021/07/21 08:42:33;;;;;;;18.30;9.20;;;;;;;22.45;50.18;102523.22;5059637;28;20033;-61
2021/07/21 08:44:59;;;;;;;17.55;8.82;;;;;;;22.63;47.90;102530.03;5057800;28;20021;-63
2021/07/21 08:47:25;;;;;;;17.73;9.60;;;;;;;22.75;48.91;102523.78;5064004;28;20028;-61
2021/07/21 08:49:50;;;;;;;16.25;9.45;;;;;;;23.27;47.97;102522.91;5058399;28;20021;-62
2021/07/21 08:52:17;;;;;;;17.35;8.90;;;;;;;24.69;43.13;102523.13;5060699;28;20021;-63
2021/07/21 08:54:46;;;;;;;16.95;9.10;;;;;;;26.24;41.32;102529.59;5055885;28;20433;-62
2021/07/21 08:57:12;;;;;;;16.15;9.02;;;;;;;27.39;37.61;102517.78;5070623;28;20033;-62
2021/07/21 08:59:38;;;;;;;16.35;9.18;;;;;;;28.09;35.86;102525.94;5051717;28;20436;-62
2021/07/21 09:02:09;;;;;;;14.77;8.73;;;;;;;28.56;36.39;102525.16;5059758;28;20040;-62
2021/07/21 09:04:34;;;;;;;13.95;8.75;;;;;;;29.22;34.43;102521.50;5070301;28;20029;-62
2021/07/21 09:07:00;;;;;;;17.55;8.57;;;;;;;28.94;34.83;102523.38;5058834;28;20020;-63
2021/07/21 09:09:25;;;;;;;15.80;8.70;;;;;;;29.40;34.18;102527.03;5065404;28;20021;-63
2021/07/21 09:11:51;;;;;;;12.55;7.90;;;;;;;29.55;34.04;102530.13;5055228;28;20058;-63
2021/07/21 09:14:16;;;;;;;15.60;9.15;;;;;;;29.38;33.62;102531.78;5068344;28;20031;-63
2021/07/21 09:16:41;;;;;;;13.45;8.98;;;;;;;29.54;32.62;102533.84;5071915;28;20025;-63
2021/07/21 09:19:10;;;;;;;13.48;9.13;;;;;;;29.69;32.83;102528.69;5073280;28;20028;-63
2021/07/21 09:21:36;;;;;;;13.90;8.75;;;;;;;29.87;32.34;102533.31;5056496;28;20036;-61
2021/07/21 09:24:01;;;;;;;14.75;8.65;;;;;;;30.09;31.58;102534.75;5069800;28;20501;-63
2021/07/21 09:26:27;;;;;;;16.05;9.23;;;;;;;29.85;32.53;102530.75;5057138;28;20028;-63
2021/07/21 09:28:52;;;;;;;15.93;8.70;;;;;;;29.95;31.81;102524.38;5074449;28;20384;-63
2021/07/21 09:31:28;;;;;;;14.43;9.07;;;;;;;30.20;32.08;102528.19;5074231;28;20661;-64
2021/07/21 09:33:54;;;;;;;19.02;9.65;;;;;;;30.60;30.65;102532.25;5069056;28;20032;-64
2021/07/21 09:36:20;;;;;;;15.27;8.77;;;;;;;29.89;32.15;102526.72;5059835;28;20402;-62
2021/07/21 09:38:47;;;;;;;16.98;9.35;;;;;;;29.69;32.01;102528.69;5061756;28;20055;-63
2021/07/21 09:41:14;;;;;;;14.07;8.32;;;;;;;29.99;32.87;102531.22;5062914;28;20153;-64
2021/07/21 09:43:40;;;;;;;18.15;9.43;;;;;;;29.83;32.84;102530.03;5056664;28;20025;-63
2021/07/21 09:46:06;;;;;;;16.38;8.70;;;;;;;29.88;30.83;102522.25;5073070;28;20028;-62
2021/07/21 09:48:36;;;;;;;16.83;9.25;;;;;;;29.43;31.29;102517.69;5066562;28;20029;-64
2021/07/21 09:51:01;;;;;;;16.52;8.02;;;;;;;29.70;32.38;102513.19;5059782;28;20446;-63
2021/07/21 09:53:49;;;;;;;15.50;9.27;;;;;;;29.72;31.98;102520.22;5059938;28;20037;-63
2021/07/21 09:56:26;;;;;;;16.52;9.63;;;;;;;30.16;31.57;102522.16;5062182;28;20028;-63
2021/07/21 09:58:52;;;;;;;16.17;9.63;;;;;;;30.15;33.42;102514.13;5055939;28;20033;-63
2021/07/21 10:01:31;;;;;;;16.25;9.23;;;;;;;30.53;31.24;102523.84;5064203;28;20021;-63
2021/07/21 10:04:05;;;;;;;20.13;8.80;;;;;;;30.68;30.92;102525.97;5055257;28;20024;-63
2021/07/21 10:06:40;;;;;;;17.40;8.57;;;;;;;30.79;31.02;102525.72;5056048;28;20032;-63
2021/07/21 10:09:05;;;;;;;13.52;8.65;;;;;;;31.36;30.90;102525.13;5066690;28;20028;-62
2021/07/21 10:11:39;;;;;;;15.18;8.50;;;;;;;31.51;29.39;102522.63;5066727;28;20369;-63
2021/07/21 10:14:11;;;;;;;18.15;9.52;;;;;;;30.97;29.63;102522.88;5074619;28;20036;-62
2021/07/21 10:16:42;;;;;;;19.63;9.52;;;;;;;30.63;30.84;102528.34;5066981;28;20029;-62
2021/07/21 10:19:17;;;;;;;17.60;8.85;;;;;;;30.73;32.60;102534.56;5073433;28;20036;-62
2021/07/21 10:21:50;;;;;;;15.68;8.95;;;;;;;31.18;32.07;102521.66;5069514;28;20039;-62
2021/07/21 10:24:16;;;;;;;13.38;8.98;;;;;;;31.14;30.02;102520.25;5054774;28;20553;-62
2021/07/21 10:26:42;;;;;;;16.02;8.13;;;;;;;31.23;29.53;102519.28;5059906;28;20092;-63
2021/07/21 10:29:09;;;;;;;15.25;9.43;;;;;;;31.02;29.75;102528.72;5073347;28;20028;-64
2021/07/21 10:31:36;;;;;;;14.98;9.10;;;;;;;30.89;31.08;102523.72;5072393;28;20027;-62
2021/07/21 10:34:02;;;;;;;17.88;9.10;;;;;;;30.94;30.77;102522.38;5074853;28;20420;-62
2021/07/21 10:36:29;;;;;;;15.15;9.30;;;;;;;31.33;28.71;102513.66;5071596;28;20017;-63
2021/07/21 10:38:55;;;;;;;14.88;8.98;;;;;;;31.33;28.95;102516.41;5060556;28;20020;-63
2021/07/21 10:41:21;;;;;;;15.90;8.73;;;;;;;31.43;28.49;102524.47;5061404;28;20107;-63
2021/07/21 10:43:50;;;;;;;13.52;8.88;;;;;;;31.18;29.67;102516.19;5067711;28;20508;-64
2021/07/21 10:46:46;;;;;;;14.98;8.23;;;;;;;31.13;29.74;102511.22;5072848;28;20033;-62
2021/07/21 10:49:39;;;;;;;12.65;8.80;;;;;;;31.34;29.22;102507.16;5063209;28;20052;-63
2021/07/21 10:55:02;;;;;;;13.48;9.07;;;;;;;31.96;28.90;102500.44;5067603;28;20121;-61
2021/07/21 11:00:19;;;;;;;16.40;9.38;;;;;;;32.48;28.23;102497.34;5062594;28;20048;-61
2021/07/21 11:02:45;;;;;;;14.07;8.93;;;;;;;32.34;28.10;102501.66;5053959;28;20040;-60
2021/07/21 11:05:40;;;;;;;12.07;9.02;;;;;;;31.92;27.92;102502.69;5062670;28;20025;-62
2021/07/21 11:08:14;;;;;;;13.70;8.95;;;;;;;32.62;27.78;102497.66;5069050;28;20021;-62
2021/07/21 11:10:43;;;;;;;11.88;7.80;;;;;;;33.08;28.66;102495.09;5067025;28;20057;-61
2021/07/21 11:13:28;;;;;;;13.02;8.13;;;;;;;33.12;26.63;102501.09;5053564;28;20115;-62
2021/07/21 11:15:55;;;;;;;15.30;9.18;;;;;;;32.17;27.86;102498.03;5071690;28;20024;-61
2021/07/21 11:18:23;;;;;;;17.58;9.88;;;;;;;31.23;28.66;102493.78;5073100;28;20863;-62
2021/07/21 11:21:00;;;;;;;14.60;10.23;;;;;;;30.60;30.68;102504.06;5069981;28;20025;-60